createdAt,value
2023-07-24T00:00:52.194Z,40
2023-07-24T00:03:23.806Z,37
2023-07-24T00:05:54.776Z,37
2023-07-24T00:08:26.399Z,40
2023-07-24T00:10:57.513Z,36
2023-07-24T00:13:29.451Z,36
2023-07-24T00:16:00.899Z,37
2023-07-24T00:18:31.802Z,40
2023-07-24T00:21:04.660Z,36
2023-07-24T00:23:36.378Z,36
2023-07-24T00:26:08.166Z,37
2023-07-24T00:28:38.982Z,36
2023-07-24T00:31:11.290Z,32
2023-07-24T00:33:42.176Z,40
2023-07-24T00:36:13.629Z,36
2023-07-24T00:38:48.270Z,36
2023-07-24T00:41:19.400Z,38
2023-07-24T00:43:50.548Z,36
2023-07-24T00:46:21.430Z,36
2023-07-24T00:48:52.385Z,39
2023-07-24T00:51:23.386Z,36
2023-07-24T00:53:54.740Z,40
2023-07-24T00:56:25.808Z,40
2023-07-24T00:58:57.529Z,39
2023-07-24T01:01:28.876Z,40
2023-07-24T01:04:01.744Z,40
2023-07-24T01:06:32.683Z,40
2023-07-24T01:09:03.623Z,36
2023-07-24T01:11:34.842Z,37
2023-07-24T01:14:07.083Z,36
2023-07-24T01:16:38.148Z,36
2023-07-24T01:19:09.367Z,36
2023-07-24T01:21:40.772Z,39
2023-07-24T01:24:13.982Z,36
2023-07-24T01:26:45.233Z,36
2023-07-24T01:29:16.432Z,39
2023-07-24T01:31:49.796Z,38
2023-07-24T01:34:22.224Z,40
2023-07-24T01:36:53.282Z,36
2023-07-24T01:39:23.937Z,40
2023-07-24T01:41:55.545Z,36
2023-07-24T01:44:29.579Z,40
2023-07-24T01:47:00.884Z,39
2023-07-24T01:49:32.570Z,40
2023-07-24T01:52:07.271Z,40
2023-07-24T01:54:38.886Z,36
2023-07-24T01:57:12.509Z,40
2023-07-24T01:59:43.559Z,36
2023-07-24T02:02:14.769Z,39
2023-07-24T02:04:45.830Z,37
2023-07-24T02:07:21.468Z,36
2023-07-24T02:09:53.098Z,40
2023-07-24T02:12:24.286Z,36
2023-07-24T02:14:55.878Z,36
2023-07-24T02:17:35.877Z,40
2023-07-24T02:20:06.513Z,37
2023-07-24T02:22:37.943Z,40
2023-07-24T02:25:09.352Z,39
2023-07-24T02:27:40.468Z,40
2023-07-24T02:30:14.687Z,37
2023-07-24T02:32:46.204Z,36
2023-07-24T02:35:17.265Z,36
2023-07-24T02:37:48.562Z,40
2023-07-24T02:40:19.692Z,40
2023-07-24T02:42:51.120Z,40
2023-07-24T02:45:22.586Z,36
2023-07-24T02:47:53.426Z,39
2023-07-24T02:50:25.170Z,40
2023-07-24T02:52:56.273Z,40
2023-07-24T02:55:27.792Z,37
2023-07-24T02:58:00.622Z,38
2023-07-24T03:00:31.940Z,40
2023-07-24T03:03:02.660Z,36
2023-07-24T03:05:34.168Z,40
2023-07-24T03:08:05.745Z,40
2023-07-24T03:10:37.157Z,40
2023-07-24T03:13:09.975Z,42
2023-07-24T03:15:41.670Z,40
2023-07-24T03:18:12.727Z,37
2023-07-24T03:20:47.722Z,40
2023-07-24T03:23:18.948Z,36
2023-07-24T03:25:50.474Z,40
2023-07-24T03:28:21.833Z,40
2023-07-24T03:30:52.747Z,43
2023-07-24T03:33:24.637Z,40
2023-07-24T03:35:55.670Z,40
2023-07-24T03:38:27.588Z,40
2023-07-24T03:40:58.398Z,39
2023-07-24T03:43:30.662Z,40
2023-07-24T03:46:02.095Z,40
2023-07-24T03:48:33.077Z,40
2023-07-24T03:51:04.783Z,40
2023-07-24T03:53:36.844Z,36
2023-07-24T03:56:07.676Z,40
2023-07-24T03:58:38.803Z,39
2023-07-24T04:01:10.027Z,40
2023-07-24T04:03:45.158Z,42
2023-07-24T04:06:17.918Z,40
2023-07-24T04:08:49.212Z,40
2023-07-24T04:11:20.180Z,40
2023-07-24T04:13:51.576Z,40
2023-07-24T04:16:22.954Z,40
2023-07-24T04:18:55.174Z,36
2023-07-24T04:21:26.624Z,43
2023-07-24T04:23:58.086Z,44
2023-07-24T04:26:29.825Z,36
2023-07-24T04:29:02.642Z,44
2023-07-24T04:31:33.965Z,37
2023-07-24T04:34:05.847Z,40
2023-07-24T04:36:36.832Z,36
2023-07-24T04:39:08.975Z,42
2023-07-24T04:41:39.853Z,45
2023-07-24T04:44:10.717Z,52
2023-07-24T04:46:41.974Z,48
2023-07-24T04:49:12.744Z,45
2023-07-24T04:51:43.500Z,49
2023-07-24T04:54:14.932Z,48
2023-07-24T04:56:46.113Z,48
2023-07-24T04:59:17.050Z,44
2023-07-24T05:01:49.200Z,44
2023-07-24T05:04:20.166Z,47
2023-07-24T05:06:56.442Z,44
2023-07-24T05:09:27.565Z,40
2023-07-24T05:11:58.604Z,40
2023-07-24T05:14:30.724Z,44
2023-07-24T05:17:01.848Z,42
2023-07-24T05:19:33.047Z,44
2023-07-24T05:22:03.663Z,40
2023-07-24T05:24:36.725Z,40
2023-07-24T05:27:08.906Z,40
2023-07-24T05:29:38.320Z,38
2023-07-24T05:32:09.361Z,37
2023-07-24T05:34:40.036Z,40
2023-07-24T05:37:13.166Z,40
2023-07-24T05:39:44.340Z,36
2023-07-24T05:42:19.211Z,36
2023-07-24T05:44:50.508Z,37
2023-07-24T05:47:21.548Z,40
2023-07-24T05:49:54.464Z,37
2023-07-24T05:52:25.362Z,36
2023-07-24T05:54:58.773Z,39
2023-07-24T05:57:31.929Z,40
2023-07-24T06:00:05.453Z,39
2023-07-24T06:02:36.277Z,39
2023-07-24T06:05:08.777Z,37
2023-07-24T06:07:39.909Z,36
2023-07-24T06:10:10.907Z,36
2023-07-24T06:12:41.774Z,37
2023-07-24T06:15:12.580Z,37
2023-07-24T06:17:43.408Z,36
2023-07-24T06:20:15.576Z,36
2023-07-24T06:22:46.982Z,36
2023-07-24T06:25:17.767Z,36
2023-07-24T06:27:48.953Z,33
2023-07-24T06:30:20.067Z,36
2023-07-24T06:32:51.125Z,38
2023-07-24T06:35:23.858Z,34
2023-07-24T06:37:56.462Z,36
2023-07-24T06:40:27.377Z,38
2023-07-24T06:42:59.166Z,33
2023-07-24T06:45:30.108Z,35
2023-07-24T06:48:01.364Z,33
2023-07-24T06:50:32.571Z,36
2023-07-24T06:53:03.898Z,36
2023-07-24T06:55:35.162Z,36
2023-07-24T06:58:06.360Z,36
2023-07-24T07:00:41.942Z,32
2023-07-24T07:03:14.518Z,36
2023-07-24T07:05:45.731Z,32
2023-07-24T07:08:16.926Z,39
2023-07-24T07:10:47.715Z,36
2023-07-24T07:13:18.358Z,32
2023-07-24T07:15:49.260Z,34
2023-07-24T07:18:21.649Z,32
2023-07-24T07:20:57.346Z,32
2023-07-24T07:23:28.801Z,33
2023-07-24T07:26:03.959Z,32
2023-07-24T07:28:37.367Z,32
2023-07-24T07:31:09.175Z,28
2023-07-24T07:33:40.934Z,32
2023-07-24T07:36:25.854Z,30
2023-07-24T07:38:56.382Z,31
2023-07-24T07:41:27.165Z,33
2023-07-24T07:43:57.845Z,32
2023-07-24T07:46:29.829Z,33
2023-07-24T07:49:06.188Z,31
2023-07-24T07:51:39.966Z,28
2023-07-24T07:54:10.691Z,31
2023-07-24T07:56:41.491Z,32
2023-07-24T07:59:12.282Z,32
2023-07-24T08:01:43.274Z,32
2023-07-24T08:04:14.810Z,37
2023-07-24T08:06:45.415Z,33
2023-07-24T08:09:16.243Z,32
2023-07-24T08:11:47.162Z,32
2023-07-24T08:14:17.902Z,31
2023-07-24T08:16:49.307Z,32
2023-07-24T08:19:20.022Z,32
2023-07-24T08:21:52.940Z,31
2023-07-24T08:24:24.114Z,28
2023-07-24T08:26:54.793Z,28
2023-07-24T08:29:28.669Z,28
2023-07-24T08:31:59.974Z,32
2023-07-24T08:34:30.157Z,32
2023-07-24T08:37:01.144Z,33
2023-07-24T08:39:31.746Z,32
2023-07-24T08:42:04.530Z,32
2023-07-24T08:44:37.031Z,32
2023-07-24T08:47:08.689Z,32
2023-07-24T08:49:39.564Z,29
2023-07-24T08:52:10.662Z,26
2023-07-24T08:54:40.841Z,28
2023-07-24T08:57:12.028Z,28
2023-07-24T08:59:43.075Z,20
2023-07-24T09:02:13.918Z,32
2023-07-24T09:04:45.261Z,28
2023-07-24T09:07:16.808Z,26
2023-07-24T09:09:48.527Z,28
2023-07-24T09:12:20.697Z,28
2023-07-24T09:14:51.524Z,26
2023-07-24T09:17:22.663Z,28
2023-07-24T09:19:53.520Z,29
2023-07-24T09:22:25.019Z,28
2023-07-24T09:24:57.451Z,27
2023-07-24T09:27:28.259Z,29
2023-07-24T09:29:58.888Z,28
2023-07-24T09:32:32.021Z,28
2023-07-24T09:35:04.356Z,28
2023-07-24T09:37:33.858Z,24
2023-07-24T09:40:07.081Z,28
2023-07-24T09:42:48.763Z,28
2023-07-24T09:45:09.505Z,29
2023-07-24T09:50:11.506Z,28
2023-07-24T09:52:41.905Z,32
2023-07-24T09:55:12.683Z,25
2023-07-24T09:57:43.107Z,28
2023-07-24T10:00:14.497Z,24
2023-07-24T10:02:44.960Z,27
2023-07-24T10:05:21.495Z,28
2023-07-24T10:07:51.913Z,27
2023-07-24T10:10:22.297Z,27
2023-07-24T10:12:53.418Z,28
2023-07-24T10:15:23.998Z,28
2023-07-24T10:17:54.961Z,24
2023-07-24T10:20:25.564Z,28
2023-07-24T10:22:57.258Z,25
2023-07-24T10:25:28.891Z,28
2023-07-24T10:28:03.136Z,28
2023-07-24T10:30:34.938Z,26
2023-07-24T10:33:10.642Z,28
2023-07-24T10:35:42.426Z,24
2023-07-24T10:38:13.562Z,28
2023-07-24T10:40:45.198Z,25
2023-07-24T10:43:15.992Z,24
2023-07-24T10:45:46.329Z,26
2023-07-24T10:48:16.579Z,28
2023-07-24T10:50:46.760Z,28
2023-07-24T10:53:16.154Z,21
2023-07-24T10:55:46.448Z,28
2023-07-24T10:58:16.954Z,31
2023-07-24T11:00:49.069Z,32
2023-07-24T11:03:20.077Z,28
2023-07-24T11:05:54.622Z,56
2023-07-24T11:08:24.988Z,45
2023-07-24T11:10:55.765Z,28
2023-07-24T11:13:30.596Z,24
2023-07-24T11:16:04.124Z,28
2023-07-24T11:18:48.378Z,31
2023-07-24T11:21:06.937Z,36
2023-07-24T11:23:38.333Z,31
2023-07-24T11:26:08.968Z,29
2023-07-24T11:28:39.820Z,23
2023-07-24T11:31:10.288Z,29
2023-07-24T11:33:40.693Z,27
2023-07-24T11:36:13.883Z,24
2023-07-24T11:38:44.444Z,24
2023-07-24T11:41:15.488Z,28
2023-07-24T11:43:46.053Z,25
2023-07-24T11:46:17.675Z,29
2023-07-24T11:48:51.199Z,25
2023-07-24T11:51:23.790Z,24
2023-07-24T11:53:58.223Z,28
2023-07-24T11:56:30.077Z,27
2023-07-24T11:59:00.872Z,28
2023-07-24T12:01:32.794Z,25
2023-07-24T12:04:04.093Z,26
2023-07-24T12:06:36.684Z,29
2023-07-24T12:09:07.090Z,25
2023-07-24T12:11:45.865Z,25
2023-07-24T12:14:15.373Z,28
2023-07-24T12:16:47.307Z,28
2023-07-24T12:19:18.546Z,24
2023-07-24T12:21:48.040Z,27
2023-07-24T12:24:18.256Z,24
2023-07-24T12:26:49.587Z,28
2023-07-24T12:29:20.119Z,24
2023-07-24T12:31:51.852Z,32
2023-07-24T12:34:22.321Z,27
2023-07-24T12:36:54.246Z,29
2023-07-24T12:39:25.017Z,28
2023-07-24T12:41:58.258Z,28
2023-07-24T12:44:28.876Z,28
2023-07-24T12:47:02.727Z,24
2023-07-24T12:49:33.242Z,22
2023-07-24T12:52:05.368Z,24
2023-07-24T12:54:50.765Z,22
2023-07-24T12:57:10.541Z,23
2023-07-24T12:59:41.164Z,25
2023-07-24T13:02:16.411Z,24
2023-07-24T13:04:50.762Z,28
2023-07-24T13:07:24.662Z,22
2023-07-24T13:09:55.360Z,25
2023-07-24T13:12:25.805Z,27
2023-07-24T13:14:56.875Z,27
2023-07-24T13:17:27.647Z,21
2023-07-24T13:19:58.560Z,24
2023-07-24T13:22:29.000Z,36
2023-07-24T13:25:00.808Z,31
2023-07-24T13:27:30.370Z,24
2023-07-24T13:30:00.709Z,28
2023-07-24T13:32:31.190Z,24
2023-07-24T13:35:02.193Z,24
2023-07-24T13:37:34.105Z,24
2023-07-24T13:40:04.652Z,24
2023-07-24T13:42:35.374Z,32
2023-07-24T13:45:06.196Z,26
2023-07-24T13:47:37.110Z,24
2023-07-24T13:50:08.054Z,29
2023-07-24T13:52:39.120Z,21
2023-07-24T13:55:11.418Z,34
2023-07-24T13:57:44.117Z,29
2023-07-24T14:00:15.346Z,32
2023-07-24T14:02:44.443Z,28
2023-07-24T14:05:15.005Z,30
2023-07-24T14:07:45.720Z,31
2023-07-24T14:10:18.774Z,48
2023-07-24T14:12:49.198Z,28
2023-07-24T14:15:24.461Z,20
2023-07-24T14:17:55.142Z,35
2023-07-24T14:20:26.229Z,28
2023-07-24T14:22:57.015Z,28
2023-07-24T14:25:27.713Z,28
2023-07-24T14:27:56.629Z,24
2023-07-24T14:30:29.045Z,24
2023-07-24T14:32:59.942Z,28
2023-07-24T14:35:31.825Z,28
2023-07-24T14:38:04.399Z,20
2023-07-24T14:40:37.064Z,20
2023-07-24T14:43:08.181Z,24
2023-07-24T14:45:39.561Z,24
2023-07-24T14:48:10.548Z,20
2023-07-24T14:50:44.007Z,24
2023-07-24T14:53:18.520Z,20
2023-07-24T14:55:49.318Z,28
2023-07-24T14:58:20.016Z,21
2023-07-24T15:00:50.302Z,26
2023-07-24T15:03:21.368Z,20
2023-07-24T15:06:01.164Z,23
2023-07-24T15:08:32.239Z,30
2023-07-24T15:11:03.540Z,24
2023-07-24T15:13:37.179Z,28
2023-07-24T15:16:09.932Z,28
2023-07-24T15:18:41.095Z,20
2023-07-24T15:21:12.101Z,32
2023-07-24T15:23:45.205Z,32
2023-07-24T15:26:16.028Z,28
2023-07-24T15:28:47.824Z,29
2023-07-24T15:31:18.629Z,35
2023-07-24T15:33:49.521Z,28
2023-07-24T15:36:20.105Z,29
2023-07-24T15:38:50.865Z,29
2023-07-24T15:41:21.402Z,25
2023-07-24T15:43:52.156Z,32
2023-07-24T15:46:23.059Z,28
2023-07-24T15:48:52.169Z,24
2023-07-24T15:51:23.819Z,30
2023-07-24T15:53:55.198Z,25
2023-07-24T15:56:26.846Z,24
2023-07-24T15:59:01.164Z,20
2023-07-24T16:01:32.457Z,30
2023-07-24T16:04:02.998Z,28
2023-07-24T16:06:33.714Z,28
2023-07-24T16:09:04.466Z,25
2023-07-24T16:11:46.116Z,23
2023-07-24T16:14:14.996Z,27
2023-07-24T16:16:46.162Z,25
2023-07-24T16:19:17.447Z,28
2023-07-24T16:21:52.437Z,21
2023-07-24T16:24:33.411Z,23
2023-07-24T16:27:03.965Z,25
2023-07-24T16:29:39.053Z,25
2023-07-24T16:32:09.488Z,20
2023-07-24T16:34:41.809Z,23
2023-07-24T16:37:12.092Z,24
2023-07-24T16:39:43.181Z,24
2023-07-24T16:42:13.760Z,27
2023-07-24T16:44:44.394Z,28
2023-07-24T16:47:20.119Z,26
2023-07-24T16:49:50.459Z,24
2023-07-24T16:52:20.988Z,28
2023-07-24T16:54:52.172Z,25
2023-07-24T16:57:22.537Z,25
2023-07-24T16:59:55.260Z,28
2023-07-24T17:02:27.155Z,28
2023-07-24T17:04:59.188Z,32
2023-07-24T17:07:30.977Z,43
2023-07-24T17:10:02.600Z,37
2023-07-24T17:12:33.539Z,39
2023-07-24T17:15:03.945Z,32
2023-07-24T17:17:35.594Z,32
2023-07-24T17:20:10.488Z,35
2023-07-24T17:22:41.608Z,36
2023-07-24T17:25:13.796Z,40
2023-07-24T17:27:45.364Z,36
2023-07-24T17:30:17.149Z,28
2023-07-24T17:32:47.978Z,36
2023-07-24T17:35:18.457Z,33
2023-07-24T17:37:49.358Z,38
2023-07-24T17:40:20.578Z,40
2023-07-24T17:42:53.139Z,32
2023-07-24T17:45:24.318Z,28
2023-07-24T17:47:59.787Z,31
2023-07-24T17:50:30.227Z,28
2023-07-24T17:53:02.522Z,36
2023-07-24T17:55:33.656Z,31
2023-07-24T17:58:04.624Z,29
2023-07-24T18:00:34.097Z,40
2023-07-24T18:03:05.589Z,33
2023-07-24T18:05:35.812Z,28
2023-07-24T18:08:07.059Z,30
2023-07-24T18:10:37.893Z,29
2023-07-24T18:13:08.286Z,28
2023-07-24T18:15:36.926Z,32
2023-07-24T18:18:07.373Z,28
2023-07-24T18:20:39.662Z,35
2023-07-24T18:23:10.007Z,30
2023-07-24T18:25:40.425Z,31
2023-07-24T18:28:11.177Z,32
2023-07-24T18:30:41.846Z,31
2023-07-24T18:33:17.080Z,32
2023-07-24T18:35:54.898Z,28
2023-07-24T18:38:27.058Z,32
2023-07-24T18:41:00.270Z,32
2023-07-24T18:43:38.000Z,29
2023-07-24T18:46:08.919Z,32
2023-07-24T18:48:40.348Z,28
2023-07-24T18:51:09.797Z,28
2023-07-24T18:53:43.346Z,28
2023-07-24T18:56:13.810Z,28
2023-07-24T18:58:45.571Z,29
2023-07-24T19:01:16.564Z,28
2023-07-24T19:03:45.333Z,30
2023-07-24T19:06:17.570Z,32
2023-07-24T19:08:46.333Z,32
2023-07-24T19:11:17.911Z,28
2023-07-24T19:13:48.930Z,32
2023-07-24T19:16:19.741Z,28
2023-07-24T19:18:50.515Z,31
2023-07-24T19:21:20.889Z,31
2023-07-24T19:23:51.254Z,28
2023-07-24T19:26:21.984Z,31
2023-07-24T19:28:52.571Z,32
2023-07-24T19:31:21.634Z,27
2023-07-24T19:33:52.434Z,28
2023-07-24T19:36:22.761Z,29
2023-07-24T19:38:53.346Z,28
2023-07-24T19:41:23.976Z,28
2023-07-24T19:43:55.339Z,28
2023-07-24T19:46:26.353Z,28
2023-07-24T19:48:56.889Z,28
2023-07-24T19:51:26.869Z,29
2023-07-24T19:53:57.384Z,32
2023-07-24T19:56:28.363Z,36
2023-07-24T19:58:59.314Z,30
2023-07-24T20:01:31.143Z,32
2023-07-24T20:04:03.646Z,32
2023-07-24T20:06:35.297Z,35
2023-07-24T20:09:05.796Z,33
2023-07-24T20:11:38.074Z,35
2023-07-24T20:14:08.463Z,33
2023-07-24T20:16:43.322Z,32
2023-07-24T20:19:14.931Z,30
2023-07-24T20:21:45.391Z,36
2023-07-24T20:24:16.528Z,32
2023-07-24T20:26:48.540Z,32
2023-07-24T20:29:19.643Z,32
2023-07-24T20:31:50.498Z,30
2023-07-24T20:34:21.609Z,28
2023-07-24T20:36:52.371Z,32
2023-07-24T20:39:25.373Z,32
2023-07-24T20:41:56.075Z,32
2023-07-24T20:44:29.475Z,28
2023-07-24T20:47:06.143Z,32
2023-07-24T20:49:36.550Z,28
2023-07-24T20:52:07.171Z,28
2023-07-24T20:54:39.176Z,32
2023-07-24T20:57:13.884Z,32
2023-07-24T20:59:46.576Z,32
2023-07-24T21:02:18.539Z,35
2023-07-24T21:04:49.293Z,32
2023-07-24T21:07:22.242Z,28
2023-07-24T21:09:52.780Z,31
2023-07-24T21:12:23.758Z,28
2023-07-24T21:14:58.758Z,30
2023-07-24T21:17:31.354Z,28
2023-07-24T21:20:13.389Z,32
2023-07-24T21:22:44.798Z,28
2023-07-24T21:25:15.487Z,31
2023-07-24T21:27:50.578Z,31
2023-07-24T21:30:29.733Z,28
2023-07-24T21:33:01.357Z,28
2023-07-24T21:35:32.154Z,28
2023-07-24T21:38:07.034Z,28
2023-07-24T21:40:42.457Z,32
2023-07-24T21:43:13.005Z,28
2023-07-24T21:45:43.833Z,28
2023-07-24T21:48:14.640Z,29
2023-07-24T21:50:46.509Z,28
2023-07-24T21:53:19.205Z,28
2023-07-24T21:55:55.886Z,28
2023-07-24T21:58:26.824Z,25
2023-07-24T22:00:59.372Z,27
2023-07-24T22:03:32.538Z,28
2023-07-24T22:06:06.137Z,24
2023-07-24T22:08:33.071Z,30
2023-07-24T22:11:07.537Z,24
2023-07-24T22:13:38.233Z,26
2023-07-24T22:16:09.526Z,28
2023-07-24T22:18:40.357Z,28
2023-07-24T22:21:11.084Z,24
2023-07-24T22:23:42.475Z,25
2023-07-24T22:26:13.485Z,24
2023-07-24T22:28:44.670Z,28
2023-07-24T22:31:15.674Z,25
2023-07-24T22:33:46.425Z,23
2023-07-24T22:36:17.352Z,25
2023-07-24T22:38:48.087Z,28
2023-07-24T22:41:18.607Z,28
2023-07-24T22:43:49.857Z,22
2023-07-24T22:46:20.884Z,23
2023-07-24T22:48:52.086Z,24
2023-07-24T22:51:23.007Z,28
2023-07-24T22:53:55.978Z,21
2023-07-24T22:56:26.590Z,24
2023-07-24T22:58:57.701Z,28
2023-07-24T23:01:30.008Z,24
2023-07-24T23:04:00.605Z,23
2023-07-24T23:06:31.341Z,24
2023-07-24T23:09:02.016Z,20
2023-07-24T23:11:33.118Z,21
2023-07-24T23:14:03.568Z,23
2023-07-24T23:16:34.848Z,23
2023-07-24T23:19:05.490Z,28
2023-07-24T23:21:36.250Z,25
2023-07-24T23:24:05.788Z,25
2023-07-24T23:26:36.670Z,23
2023-07-24T23:29:07.585Z,16
2023-07-24T23:31:38.412Z,19
2023-07-24T23:34:10.575Z,24
2023-07-24T23:36:41.659Z,23
2023-07-24T23:39:12.600Z,24
2023-07-24T23:41:43.446Z,23
2023-07-24T23:44:14.400Z,23
2023-07-24T23:46:46.629Z,20
2023-07-24T23:49:16.112Z,22
2023-07-24T23:51:47.082Z,19
2023-07-24T23:54:16.353Z,19
2023-07-24T23:56:46.989Z,20
2023-07-24T23:59:18.150Z,16
